Impacts TAF Board
For situational awareness. Not to be used for flight planning purposes.
IDs:

KTOI - Troy Muni, AL, US

Issued at 2336 UTC 22 Oct 2018
Updated at 0406 UTC 23 Oct 2018
Potential Impact None Slight Moderate High
Time<<23/17Z 23/18Z 23/19Z 23/20Z 23/21Z 23/22Z 23/23Z 24/00Z 24/01Z 24/02Z 24/03Z 24/04Z 24/05Z>>
Type PRVL PRVL PRVL PRVL PRVL PRVL PRVL
VIS >6 >6 >6 >6 >6 >6 >6
CIG -- -- -- -- -- -- --
Cover SCT SCT SCT SCT SCT SCT SCT
FltCat VFR VFR VFR VFR VFR VFR VFR
WX -- -- -- -- -- -- --
WDir 60 60 60 60 60 60 60
WSpd 4 4 4 4 4 4 4
WGst -- -- -- -- -- -- --
Raw TAF
KTOI 222336Z 2300/2324 00000KT P6SM SCT045 BKN250
  FM231500 06004KT P6SM SCT250


METAR Board
Radar Display
Forecast Discussion
For situational awareness. Not to be used for flight planning purposes.